createdAt,value
2016-05-12T00:00:48.542Z,0
2016-05-12T00:01:48.403Z,0
2016-05-12T00:02:48.609Z,0
2016-05-12T00:03:48.722Z,0
2016-05-12T00:04:48.583Z,0
2016-05-12T00:05:48.586Z,0
2016-05-12T00:06:48.838Z,0
2016-05-12T00:07:48.872Z,0
2016-05-12T00:08:48.860Z,0
2016-05-12T00:09:48.909Z,0
2016-05-12T00:10:49.053Z,0
2016-05-12T00:11:48.993Z,0
2016-05-12T00:12:49.011Z,0
2016-05-12T00:13:49.124Z,0
2016-05-12T00:14:49.141Z,0
2016-05-12T00:15:49.004Z,0
2016-05-12T00:16:49.037Z,0
2016-05-12T00:17:49.274Z,0
2016-05-12T00:18:49.293Z,0
2016-05-12T00:19:49.312Z,0
2016-05-12T00:20:49.392Z,0
2016-05-12T00:21:49.114Z,0
2016-05-12T00:22:49.444Z,0
2016-05-12T00:23:49.323Z,0
2016-05-12T00:24:49.576Z,0
2016-05-12T00:25:49.484Z,0
2016-05-12T00:26:49.595Z,0
2016-05-12T00:27:49.520Z,0
2016-05-12T00:28:49.366Z,0
2016-05-12T00:29:49.275Z,0
2016-05-12T00:30:49.622Z,0
2016-05-12T00:31:49.844Z,0
2016-05-12T00:32:49.878Z,0
2016-05-12T00:33:49.896Z,0
2016-05-12T00:34:49.945Z,0
2016-05-12T00:35:50.027Z,0
2016-05-12T00:36:50.029Z,0
2016-05-12T00:37:49.907Z,0
2016-05-12T00:38:50.144Z,0
2016-05-12T00:39:50.006Z,0
2016-05-12T00:40:50.196Z,0
2016-05-12T00:41:50.246Z,0
2016-05-12T00:42:50.326Z,0
2016-05-12T00:43:50.157Z,0
2016-05-12T00:44:50.362Z,0
2016-05-12T00:45:50.303Z,0
2016-05-12T00:46:50.307Z,0
2016-05-12T00:47:50.355Z,0
2016-05-12T00:48:50.546Z,0
2016-05-12T00:49:50.579Z,0
2016-05-12T00:50:50.676Z,0
2016-05-12T00:51:50.694Z,0
2016-05-12T00:52:50.603Z,0
2016-05-12T00:53:50.590Z,0
2016-05-12T00:54:50.812Z,0
2016-05-12T00:55:50.892Z,0
2016-05-12T00:56:50.973Z,0
2016-05-12T00:57:50.882Z,0
2016-05-12T00:58:51.042Z,0
2016-05-12T00:59:51.044Z,0
2016-05-12T01:00:50.983Z,0
2016-05-12T01:01:51.581Z,0
2016-05-12T01:02:51.037Z,0
2016-05-12T01:03:51.305Z,0
2016-05-12T01:04:52.729Z,0
2016-05-12T01:05:51.232Z,0
2016-05-12T01:06:51.281Z,0
2016-05-12T01:07:51.331Z,0
2016-05-12T01:08:51.412Z,0
2016-05-12T01:09:51.430Z,0
2016-05-12T01:10:51.449Z,0
2016-05-12T01:11:51.482Z,0
2016-05-12T01:12:51.532Z,0
2016-05-12T01:13:51.410Z,0
2016-05-12T01:14:51.585Z,0
2016-05-12T01:15:51.728Z,0
2016-05-12T01:16:51.699Z,0
2016-05-12T01:17:51.764Z,0
2016-05-12T01:18:51.610Z,0
2016-05-12T01:19:51.691Z,0
2016-05-12T01:20:51.865Z,0
2016-05-12T01:21:51.885Z,0
2016-05-12T01:22:51.653Z,0
2016-05-12T01:23:51.968Z,0
2016-05-12T01:24:52.002Z,0
2016-05-12T01:25:51.770Z,0
2016-05-12T01:26:52.132Z,0
2016-05-12T01:27:52.166Z,0
2016-05-12T01:28:52.184Z,0
2016-05-12T01:29:52.218Z,0
2016-05-12T01:30:52.096Z,0
2016-05-12T01:31:52.067Z,0
2016-05-12T01:32:52.351Z,0
2016-05-12T01:33:52.416Z,0
2016-05-12T01:34:52.435Z,0
2016-05-12T01:35:52.469Z,0
2016-05-12T01:36:52.519Z,0
2016-05-12T01:37:52.787Z,0
2016-05-12T01:38:52.586Z,0
2016-05-12T01:39:52.636Z,0
2016-05-12T01:40:52.763Z,0
2016-05-12T01:41:52.439Z,0
2016-05-12T01:42:52.582Z,0
2016-05-12T01:43:52.802Z,0
2016-05-12T01:44:52.680Z,0
2016-05-12T01:45:52.730Z,0
2016-05-12T01:46:52.936Z,0
2016-05-12T01:47:52.985Z,0
2016-05-12T01:48:53.019Z,0
2016-05-12T01:49:53.038Z,0
2016-05-12T01:50:53.087Z,0
2016-05-12T01:51:53.184Z,0
2016-05-12T01:52:53.202Z,0
2016-05-12T01:53:53.064Z,0
2016-05-12T01:54:53.098Z,0
2016-05-12T01:55:53.335Z,0
2016-05-12T01:56:53.354Z,0
2016-05-12T01:57:53.231Z,0
2016-05-12T01:58:53.406Z,0
2016-05-12T01:59:53.503Z,0
2016-05-12T02:00:53.505Z,0
2016-05-12T02:01:53.850Z,0
2016-05-12T02:02:53.603Z,0
2016-05-12T02:03:53.326Z,0
2016-05-12T02:04:53.656Z,0
2016-05-12T02:05:53.564Z,0
2016-05-12T02:06:53.817Z,0
2016-05-12T02:07:53.789Z,0
2016-05-12T02:08:53.823Z,0
2016-05-12T02:09:53.857Z,0
2016-05-12T02:10:53.953Z,0
2016-05-12T02:11:53.956Z,0
2016-05-12T02:12:53.974Z,0
2016-05-12T02:13:53.883Z,0
2016-05-12T02:14:54.089Z,0
2016-05-12T02:15:53.951Z,0
2016-05-12T02:16:53.892Z,0
2016-05-12T02:17:54.191Z,0
2016-05-12T02:18:54.240Z,0
2016-05-12T02:19:54.291Z,0
2016-05-12T02:20:54.355Z,0
2016-05-12T02:21:54.390Z,0
2016-05-12T02:22:54.392Z,0
2016-05-12T02:23:54.285Z,0
2016-05-12T02:24:54.320Z,0
2016-05-12T02:25:54.541Z,0
2016-05-12T02:26:54.559Z,0
2016-05-12T02:27:54.312Z,0
2016-05-12T02:28:54.720Z,0
2016-05-12T02:29:54.551Z,0
2016-05-12T02:30:54.726Z,0
2016-05-12T02:31:54.651Z,0
2016-05-12T02:32:54.842Z,0
2016-05-12T02:33:54.844Z,0
2016-05-12T02:34:54.924Z,0
2016-05-12T02:35:54.990Z,0
2016-05-12T02:36:54.836Z,0
2016-05-12T02:37:55.025Z,0
2016-05-12T02:38:55.045Z,0
2016-05-12T02:39:55.266Z,0
2016-05-12T02:40:55.144Z,0
2016-05-12T02:41:55.162Z,0
2016-05-12T02:42:55.289Z,0
2016-05-12T02:43:55.261Z,0
2016-05-12T02:44:55.294Z,0
2016-05-12T02:45:55.391Z,4
2016-05-12T02:46:55.113Z,4
2016-05-12T02:47:55.413Z,0
2016-05-12T02:48:55.462Z,0
2016-05-12T02:49:55.574Z,4
2016-05-12T02:50:55.577Z,4
2016-05-12T02:51:55.424Z,4
2016-05-12T02:52:55.629Z,4
2016-05-12T02:53:55.554Z,4
2016-05-12T02:54:55.728Z,8
2016-05-12T02:55:55.824Z,8
2016-05-12T02:56:55.623Z,8
2016-05-12T02:57:55.673Z,8
2016-05-12T02:58:55.724Z,12
2016-05-12T02:59:55.914Z,12
2016-05-12T03:00:55.823Z,16
2016-05-12T03:01:56.169Z,16
2016-05-12T03:02:56.031Z,24
2016-05-12T03:03:55.924Z,28
2016-05-12T03:04:56.193Z,32
2016-05-12T03:05:56.164Z,32
2016-05-12T03:06:56.198Z,40
2016-05-12T03:07:56.263Z,44
2016-05-12T03:08:56.281Z,48
2016-05-12T03:09:56.159Z,56
2016-05-12T03:10:56.365Z,64
2016-05-12T03:11:56.117Z,68
2016-05-12T03:12:56.433Z,84
2016-05-12T03:13:56.327Z,92
2016-05-12T03:14:56.407Z,100
2016-05-12T03:15:56.582Z,108
2016-05-12T03:16:56.334Z,124
2016-05-12T03:17:56.338Z,136
2016-05-12T03:18:56.715Z,148
2016-05-12T03:19:56.733Z,164
2016-05-12T03:20:56.767Z,180
2016-05-12T03:21:56.676Z,196
2016-05-12T03:22:56.568Z,212
2016-05-12T03:23:56.743Z,228
2016-05-12T03:24:56.934Z,252
2016-05-12T03:25:57.015Z,272
2016-05-12T03:26:57.017Z,292
2016-05-12T03:27:57.067Z,312
2016-05-12T03:28:56.960Z,336
2016-05-12T03:29:56.837Z,356
2016-05-12T03:30:57.028Z,380
2016-05-12T03:31:57.062Z,400
2016-05-12T03:32:57.159Z,428
2016-05-12T03:33:57.161Z,448
2016-05-12T03:34:57.039Z,472
2016-05-12T03:35:57.213Z,496
2016-05-12T03:36:57.294Z,520
2016-05-12T03:37:57.328Z,544
2016-05-12T03:38:57.487Z,568
2016-05-12T03:39:57.709Z,592
2016-05-12T03:40:57.430Z,612
2016-05-12T03:41:57.619Z,636
2016-05-12T03:42:57.669Z,656
2016-05-12T03:43:57.703Z,676
2016-05-12T03:44:57.753Z,696
2016-05-12T03:45:57.615Z,724
2016-05-12T03:46:57.540Z,752
2016-05-12T03:47:57.746Z,780
2016-05-12T03:48:57.905Z,808
2016-05-12T03:49:57.938Z,840
2016-05-12T03:50:57.847Z,876
2016-05-12T03:51:58.022Z,904
2016-05-12T03:52:58.088Z,944
2016-05-12T03:53:58.168Z,980
2016-05-12T03:54:58.171Z,1016
2016-05-12T03:55:57.907Z,1056
2016-05-12T03:56:58.067Z,1100
2016-05-12T03:57:58.304Z,1140
2016-05-12T03:58:58.323Z,1184
2016-05-12T03:59:58.357Z,1232
2016-05-12T04:00:58.437Z,1280
2016-05-12T04:01:58.549Z,1328
2016-05-12T04:02:58.473Z,1380
2016-05-12T04:03:58.351Z,1432
2016-05-12T04:04:58.698Z,1484
2016-05-12T04:05:58.732Z,1536
2016-05-12T04:06:58.703Z,1584
2016-05-12T04:07:58.706Z,1628
2016-05-12T04:08:58.724Z,1676
2016-05-12T04:09:58.602Z,1724
2016-05-12T04:10:58.636Z,1764
2016-05-12T04:11:58.842Z,1812
2016-05-12T04:12:58.906Z,1856
2016-05-12T04:13:58.597Z,1900
2016-05-12T04:14:58.958Z,1944
2016-05-12T04:15:58.868Z,1980
2016-05-12T04:16:58.730Z,2024
2016-05-12T04:17:58.935Z,2064
2016-05-12T04:18:58.955Z,2104
2016-05-12T04:19:59.207Z,2144
2016-05-12T04:20:59.194Z,2180
2016-05-12T04:21:59.274Z,2216
2016-05-12T04:22:59.293Z,2244
2016-05-12T04:23:59.310Z,2276
2016-05-12T04:24:59.345Z,2304
2016-05-12T04:25:59.441Z,2332
2016-05-12T04:26:59.304Z,2356
2016-05-12T04:27:59.321Z,2384
2016-05-12T04:28:59.528Z,2408
2016-05-12T04:29:59.593Z,2432
2016-05-12T04:30:59.612Z,2460
2016-05-12T04:31:59.661Z,2484
2016-05-12T04:32:59.695Z,2504
2016-05-12T04:33:59.776Z,2524
2016-05-12T04:34:59.762Z,2544
2016-05-12T04:35:59.812Z,2568
2016-05-12T04:36:59.845Z,2588
2016-05-12T04:37:59.896Z,2612
2016-05-12T04:38:59.931Z,2632
2016-05-12T04:39:59.979Z,2656
2016-05-12T04:41:00.075Z,2672
2016-05-12T04:42:00.063Z,2692
2016-05-12T04:43:00.111Z,2708
2016-05-12T04:43:59.975Z,2720
2016-05-12T04:45:00.072Z,2728
2016-05-12T04:46:00.214Z,2740
2016-05-12T04:47:00.264Z,2744
2016-05-12T04:48:00.360Z,2744
2016-05-12T04:49:00.191Z,2744
2016-05-12T04:50:00.068Z,2748
2016-05-12T04:51:00.494Z,2748
2016-05-12T04:52:00.465Z,2744
2016-05-12T04:53:00.499Z,2744
2016-05-12T04:54:00.532Z,2740
2016-05-12T04:55:00.613Z,2736
2016-05-12T04:56:00.632Z,2740
2016-05-12T04:57:00.666Z,2740
2016-05-12T04:58:00.762Z,2740
2016-05-12T04:59:01.359Z,2744
2016-05-12T05:00:01.440Z,2748
2016-05-12T05:01:01.082Z,2752
2016-05-12T05:02:00.429Z,2764
2016-05-12T05:03:00.900Z,2768
2016-05-12T05:04:00.638Z,2776
2016-05-12T05:05:01.015Z,2788
2016-05-12T05:06:01.049Z,2804
2016-05-12T05:07:00.802Z,2820
2016-05-12T05:08:01.101Z,2840
2016-05-12T05:09:01.198Z,2856
2016-05-12T05:10:01.106Z,2876
2016-05-12T05:11:01.062Z,2896
2016-05-12T05:12:02.597Z,2916
2016-05-12T05:13:01.350Z,2928
2016-05-12T05:14:01.242Z,2944
2016-05-12T05:15:01.386Z,2964
2016-05-12T05:16:01.466Z,2980
2016-05-12T05:17:01.500Z,3004
2016-05-12T05:18:03.675Z,3024
2016-05-12T05:19:01.584Z,3048
2016-05-12T05:20:01.618Z,3072
2016-05-12T05:21:01.964Z,3088
2016-05-12T05:22:01.577Z,3112
2016-05-12T05:23:01.735Z,3136
2016-05-12T05:24:01.614Z,3156
2016-05-12T05:25:01.819Z,3180
2016-05-12T05:26:01.775Z,3200
2016-05-12T05:27:01.934Z,3228
2016-05-12T05:28:03.015Z,3248
2016-05-12T05:29:01.985Z,3272
2016-05-12T05:30:02.020Z,3296
2016-05-12T05:31:02.445Z,3316
2016-05-12T05:32:02.073Z,3336
2016-05-12T05:33:02.137Z,3356
2016-05-12T05:34:02.015Z,3372
2016-05-12T05:35:02.284Z,3384
2016-05-12T05:36:02.270Z,3400
2016-05-12T05:37:02.304Z,3408
2016-05-12T05:38:02.353Z,3420
2016-05-12T05:39:02.404Z,3432
2016-05-12T05:40:02.251Z,3448
2016-05-12T05:41:02.300Z,3460
2016-05-12T05:42:02.818Z,3476
2016-05-12T05:43:02.555Z,3484
2016-05-12T05:44:02.588Z,3496
2016-05-12T05:45:02.623Z,3504
2016-05-12T05:46:02.703Z,3512
2016-05-12T05:47:02.706Z,3524
2016-05-12T05:48:02.959Z,3540
2016-05-12T05:49:02.899Z,3552
2016-05-12T05:50:02.902Z,3560
2016-05-12T05:51:03.155Z,3572
2016-05-12T05:52:02.876Z,3580
2016-05-12T05:53:03.332Z,3596
2016-05-12T05:54:03.662Z,3608
2016-05-12T05:55:03.024Z,3620
2016-05-12T05:56:03.513Z,3636
2016-05-12T05:57:03.046Z,3640
2016-05-12T05:58:03.517Z,3648
2016-05-12T05:59:03.629Z,3660
2016-05-12T06:00:05.007Z,3672
2016-05-12T06:01:03.416Z,3684
2016-05-12T06:02:03.731Z,3692
2016-05-12T06:03:03.390Z,3704
2016-05-12T06:04:03.674Z,3712
2016-05-12T06:05:03.505Z,3724
2016-05-12T06:06:03.398Z,3732
2016-05-12T06:07:03.573Z,3740
2016-05-12T06:08:03.450Z,3748
2016-05-12T06:09:03.500Z,3748
2016-05-12T06:10:04.017Z,3756
2016-05-12T06:11:06.584Z,3760
2016-05-12T06:12:06.445Z,3716
2016-05-12T06:13:04.167Z,3688
2016-05-12T06:14:04.731Z,3888
2016-05-12T06:15:07.219Z,3904
2016-05-12T06:16:03.941Z,3924
2016-05-12T06:17:04.084Z,3948
2016-05-12T06:18:03.696Z,3968
2016-05-12T06:19:03.886Z,3984
2016-05-12T06:20:04.655Z,4004
2016-05-12T06:21:04.172Z,4024
2016-05-12T06:22:04.160Z,4044
2016-05-12T06:23:04.585Z,4060
2016-05-12T06:24:04.087Z,4076
2016-05-12T06:25:04.293Z,4088
2016-05-12T06:26:04.624Z,4104
2016-05-12T06:27:04.408Z,4120
2016-05-12T06:28:04.629Z,4140
2016-05-12T06:29:04.460Z,4156
2016-05-12T06:30:04.510Z,4180
2016-05-12T06:31:04.652Z,4192
2016-05-12T06:32:05.671Z,4220
2016-05-12T06:33:07.470Z,4248
2016-05-12T06:34:07.443Z,4260
2016-05-12T06:35:08.820Z,4280
2016-05-12T06:36:07.275Z,4296
2016-05-12T06:37:07.638Z,4308
2016-05-12T06:38:07.578Z,4320
2016-05-12T06:39:06.737Z,4332
2016-05-12T06:40:07.615Z,4340
2016-05-12T06:41:06.227Z,4352
2016-05-12T06:42:07.417Z,4364
2016-05-12T06:43:06.810Z,4372
2016-05-12T06:44:06.312Z,4380
2016-05-12T06:45:07.034Z,4388
2016-05-12T06:46:07.334Z,4400
2016-05-12T06:47:07.820Z,4408
2016-05-12T06:48:08.402Z,4396
2016-05-12T06:49:08.075Z,4360
2016-05-12T06:50:06.075Z,4436
2016-05-12T06:51:06.183Z,4440
2016-05-12T06:52:06.431Z,4452
2016-05-12T06:53:05.493Z,4460
2016-05-12T06:54:05.789Z,4468
2016-05-12T06:55:07.338Z,4484
2016-05-12T06:56:06.185Z,4492
2016-05-12T06:57:06.546Z,4504
2016-05-12T06:58:07.017Z,4516
2016-05-12T06:59:07.129Z,4528
2016-05-12T07:00:07.262Z,4544
2016-05-12T07:01:06.255Z,4552
2016-05-12T07:02:05.309Z,4568
2016-05-12T07:03:06.552Z,4588
2016-05-12T07:04:06.122Z,4604
2016-05-12T07:05:06.596Z,4624
2016-05-12T07:06:06.601Z,4636
2016-05-12T07:07:08.371Z,4660
2016-05-12T07:08:06.485Z,4668
2016-05-12T07:09:06.896Z,4676
2016-05-12T07:10:08.900Z,4684
2016-05-12T07:11:06.919Z,4696
2016-05-12T07:12:09.875Z,4712
2016-05-12T07:13:06.909Z,4732
2016-05-12T07:14:06.679Z,4748
2016-05-12T07:15:06.744Z,4776
2016-05-12T07:16:09.778Z,4788
2016-05-12T07:17:07.734Z,4796
2016-05-12T07:18:06.972Z,4812
2016-05-12T07:19:07.912Z,4840
2016-05-12T07:20:07.868Z,4860
2016-05-12T07:21:07.261Z,4880
2016-05-12T07:22:07.686Z,4888
2016-05-12T07:23:07.408Z,4912
2016-05-12T07:24:06.833Z,4928
2016-05-12T07:25:07.273Z,4948
2016-05-12T07:26:07.197Z,4964
2016-05-12T07:27:07.871Z,4992
2016-05-12T07:28:07.375Z,5012
2016-05-12T07:29:08.299Z,5032
2016-05-12T07:30:10.036Z,5060
2016-05-12T07:31:11.305Z,5100
2016-05-12T07:32:07.932Z,5124
2016-05-12T07:33:07.513Z,5156
2016-05-12T07:34:08.531Z,5176
2016-05-12T07:35:07.705Z,5208
2016-05-12T07:36:07.630Z,5240
2016-05-12T07:37:07.664Z,5284
2016-05-12T07:38:09.213Z,5316
2016-05-12T07:39:08.560Z,5352
2016-05-12T07:40:07.782Z,5412
2016-05-12T07:41:07.519Z,5444
2016-05-12T07:42:07.912Z,5484
2016-05-12T07:43:09.102Z,5556
2016-05-12T07:44:19.979Z,5404
2016-05-12T07:45:12.436Z,5432
2016-05-12T07:46:10.392Z,5456
2016-05-12T07:47:11.207Z,5524
2016-05-12T07:48:10.225Z,5564
2016-05-12T07:49:10.243Z,5604
2016-05-12T07:50:11.434Z,5676
2016-05-12T07:51:10.920Z,5700
2016-05-12T07:52:12.299Z,5708
2016-05-12T07:53:15.082Z,5764
2016-05-12T07:54:13.039Z,5820
2016-05-12T07:55:13.791Z,5856
2016-05-12T07:56:10.231Z,5904
2016-05-12T07:57:08.609Z,6000
2016-05-12T07:58:09.783Z,6076
2016-05-12T07:59:08.536Z,6104
2016-05-12T08:00:11.679Z,6108
2016-05-12T08:01:11.432Z,6176
2016-05-12T08:02:12.200Z,6232
2016-05-12T08:03:12.328Z,6248
2016-05-12T08:04:17.143Z,6216
2016-05-12T08:05:14.818Z,6212
2016-05-12T08:06:15.430Z,6136
2016-05-12T08:07:14.870Z,6124
2016-05-12T08:08:15.247Z,6132
2016-05-12T08:09:16.749Z,6108
2016-05-12T08:10:14.613Z,6372
2016-05-12T08:11:16.085Z,6432
2016-05-12T08:12:17.758Z,6504
2016-05-12T08:13:16.558Z,6516
2016-05-12T08:14:17.467Z,6500
2016-05-12T08:15:13.126Z,6524
2016-05-12T08:16:12.832Z,6516
2016-05-12T08:17:12.068Z,6500
2016-05-12T08:18:12.963Z,6544
2016-05-12T08:19:12.434Z,6564
2016-05-12T08:20:09.545Z,6556
2016-05-12T08:21:09.674Z,6700
2016-05-12T08:22:09.489Z,6696
2016-05-12T08:23:10.428Z,6724
2016-05-12T08:24:09.712Z,6716
2016-05-12T08:25:09.575Z,6740
2016-05-12T08:26:09.920Z,6716
2016-05-12T08:27:09.736Z,6748
2016-05-12T08:28:09.942Z,6764
2016-05-12T08:29:09.928Z,6792
2016-05-12T08:30:09.806Z,6892
2016-05-12T08:31:12.747Z,7016
2016-05-12T08:32:10.234Z,7060
2016-05-12T08:33:10.190Z,7060
2016-05-12T08:34:16.412Z,7044
2016-05-12T08:35:14.383Z,7036
2016-05-12T08:36:15.855Z,7192
2016-05-12T08:37:21.247Z,7332
2016-05-12T08:38:18.578Z,7208
2016-05-12T08:39:18.972Z,7076
2016-05-12T08:40:21.271Z,7068
2016-05-12T08:41:21.540Z,7116
2016-05-12T08:42:19.432Z,7156
2016-05-12T08:43:19.435Z,7224
2016-05-12T08:44:18.376Z,7240
2016-05-12T08:45:20.129Z,7268
2016-05-12T08:46:16.490Z,7284
2016-05-12T08:47:15.931Z,7272
2016-05-12T08:48:16.480Z,7280
2016-05-12T08:49:15.826Z,7388
2016-05-12T08:50:17.048Z,7452
2016-05-12T08:51:17.317Z,7592
2016-05-12T08:52:18.709Z,7736
2016-05-12T08:53:17.009Z,7744
2016-05-12T08:54:23.309Z,7840
2016-05-12T08:55:22.014Z,7992
2016-05-12T08:56:22.877Z,8136
2016-05-12T08:57:24.114Z,8172
2016-05-12T08:58:22.897Z,8040
2016-05-12T08:59:21.073Z,8072
2016-05-12T09:00:20.809Z,8228
2016-05-12T09:01:17.952Z,8324
2016-05-12T09:02:20.175Z,8440
2016-05-12T09:03:16.614Z,8560
2016-05-12T09:04:16.820Z,8528
2016-05-12T09:05:11.182Z,8512
2016-05-12T09:06:13.091Z,8644
2016-05-12T09:07:11.625Z,8756
2016-05-12T09:08:15.237Z,8988
2016-05-12T09:09:11.677Z,9096
2016-05-12T09:10:11.711Z,9420
2016-05-12T09:11:11.824Z,9504
2016-05-12T09:12:11.716Z,9356
2016-05-12T09:13:15.188Z,9416
2016-05-12T09:14:12.128Z,9336
2016-05-12T09:15:12.507Z,9352
2016-05-12T09:16:11.868Z,9660
2016-05-12T09:17:12.043Z,10148
2016-05-12T09:18:12.093Z,10716
2016-05-12T09:19:12.251Z,11044
2016-05-12T09:20:12.020Z,10788
2016-05-12T09:21:12.210Z,10716
2016-05-12T09:22:11.775Z,10776
2016-05-12T09:23:12.324Z,11344
2016-05-12T09:24:12.326Z,12104
2016-05-12T09:25:12.408Z,12424
2016-05-12T09:26:14.848Z,12460
2016-05-12T09:27:12.491Z,12336
2016-05-12T09:28:12.541Z,12284
2016-05-12T09:29:13.965Z,12444
2016-05-12T09:30:12.937Z,12312
2016-05-12T09:31:13.924Z,13900
2016-05-12T09:32:13.505Z,14264
2016-05-12T09:33:14.617Z,13312
2016-05-12T09:34:12.900Z,13008
2016-05-12T09:35:12.872Z,12972
2016-05-12T09:36:13.031Z,13800
2016-05-12T09:37:13.206Z,14676
2016-05-12T09:38:13.771Z,15532
2016-05-12T09:39:12.946Z,16000
2016-05-12T09:40:13.136Z,16476
2016-05-12T09:41:15.326Z,16052
2016-05-12T09:42:13.204Z,15244
2016-05-12T09:43:13.331Z,15032
2016-05-12T09:44:13.302Z,15448
2016-05-12T09:45:13.399Z,15944
2016-05-12T09:46:13.401Z,15232
2016-05-12T09:47:13.280Z,14600
2016-05-12T09:48:13.454Z,14632
2016-05-12T09:49:13.957Z,16228
2016-05-12T09:50:14.132Z,19392
2016-05-12T09:51:14.103Z,20768
2016-05-12T09:52:13.496Z,19360
2016-05-12T09:53:13.983Z,17888
2016-05-12T09:54:14.095Z,17068
2016-05-12T09:55:13.879Z,17212
2016-05-12T09:56:15.023Z,17704
2016-05-12T09:57:13.962Z,17656
2016-05-12T09:58:14.090Z,18784
2016-05-12T09:59:13.952Z,18348
2016-05-12T10:00:13.845Z,19520
2016-05-12T10:01:14.348Z,20384
2016-05-12T10:02:13.788Z,22720
2016-05-12T10:03:14.151Z,23232
2016-05-12T10:04:14.279Z,25024
2016-05-12T10:05:14.094Z,25216
2016-05-12T10:06:14.175Z,25696
2016-05-12T10:07:14.349Z,23168
2016-05-12T10:08:14.430Z,22304
2016-05-12T10:09:14.558Z,19968
2016-05-12T10:10:16.997Z,22848
2016-05-12T10:11:15.844Z,23904
2016-05-12T10:12:14.627Z,33408
2016-05-12T10:13:14.787Z,81568
2016-05-12T10:14:14.633Z,99584
2016-05-12T10:15:15.542Z,99520
2016-05-12T10:16:15.623Z,59168
2016-05-12T10:17:14.891Z,27136
2016-05-12T10:18:14.910Z,81760
2016-05-12T10:19:14.788Z,90080
2016-05-12T10:20:15.477Z,34528
2016-05-12T10:21:18.402Z,22944
2016-05-12T10:22:16.326Z,72000
2016-05-12T10:23:15.221Z,100192
2016-05-12T10:24:15.067Z,55648
2016-05-12T10:25:15.304Z,102496
2016-05-12T10:26:15.212Z,103136
2016-05-12T10:27:15.325Z,108224
2016-05-12T10:28:15.406Z,108128
2016-05-12T10:29:15.314Z,108448
2016-05-12T10:30:15.333Z,104928
2016-05-12T10:31:15.381Z,105088
2016-05-12T10:32:15.619Z,103712
2016-05-12T10:33:15.701Z,47328
2016-05-12T10:34:15.889Z,15484
2016-05-12T10:35:15.642Z,54368
2016-05-12T10:36:15.692Z,96864
2016-05-12T10:37:15.758Z,76928
2016-05-12T10:38:15.964Z,94592
2016-05-12T10:39:16.216Z,28864
2016-05-12T10:40:16.297Z,90112
2016-05-12T10:41:16.627Z,86528
2016-05-12T10:42:16.161Z,89920
2016-05-12T10:43:16.243Z,36512
2016-05-12T10:44:16.167Z,25088
2016-05-12T10:45:16.341Z,96768
2016-05-12T10:46:16.391Z,82272
2016-05-12T10:47:16.160Z,63680
2016-05-12T10:48:16.507Z,123808
2016-05-12T10:49:16.087Z,120768
2016-05-12T10:50:16.042Z,111584
2016-05-12T10:51:16.686Z,107296
2016-05-12T10:52:16.752Z,25696
2016-05-12T10:53:17.613Z,102368
2016-05-12T10:54:17.648Z,40032
2016-05-12T10:55:16.681Z,25216
2016-05-12T10:56:16.949Z,106816
2016-05-12T10:57:16.859Z,105920
2016-05-12T10:58:17.174Z,23488
2016-05-12T10:59:17.129Z,61152
2016-05-12T11:00:17.194Z,82304
2016-05-12T11:01:17.306Z,100672
2016-05-12T11:02:17.185Z,81408
2016-05-12T11:03:17.389Z,18368
2016-05-12T11:04:17.470Z,43264
2016-05-12T11:05:17.317Z,30752
2016-05-12T11:06:17.555Z,111104
2016-05-12T11:07:17.589Z,45536
2016-05-12T11:08:17.639Z,116096
2016-05-12T11:09:17.702Z,38656
2016-05-12T11:10:17.800Z,21600
2016-05-12T11:11:17.678Z,20192
2016-05-12T11:12:17.883Z,70560
2016-05-12T11:13:17.855Z,114880
2016-05-12T11:14:17.982Z,94592
2016-05-12T11:15:18.172Z,61056
2016-05-12T11:16:18.253Z,79872
2016-05-12T11:17:18.615Z,96128
2016-05-12T11:18:18.243Z,41472
2016-05-12T11:19:18.121Z,60864
2016-05-12T11:20:18.592Z,36320
2016-05-12T11:21:18.485Z,131328
2016-05-12T11:22:18.738Z,125312
2016-05-12T11:23:18.756Z,103328
2016-05-12T11:24:18.603Z,106176
2016-05-12T11:25:18.637Z,42272
2016-05-12T11:26:18.874Z,105024
2016-05-12T11:27:19.173Z,24896
2016-05-12T11:28:18.879Z,115648
2016-05-12T11:29:19.070Z,129376
2016-05-12T11:30:19.057Z,76448
2016-05-12T11:31:19.168Z,92672
2016-05-12T11:32:19.733Z,42496
2016-05-12T11:33:19.174Z,35680
2016-05-12T11:34:18.989Z,118208
2016-05-12T11:35:19.460Z,62912
2016-05-12T11:36:20.104Z,109568
2016-05-12T11:37:20.450Z,127648
2016-05-12T11:38:19.328Z,50720
2016-05-12T11:39:19.643Z,134272
2016-05-12T11:40:20.006Z,131136
2016-05-12T11:41:19.961Z,124992
2016-05-12T11:42:19.447Z,134592
2016-05-12T11:43:20.780Z,128384
2016-05-12T11:44:19.828Z,119616
2016-05-12T11:45:19.785Z,24224
2016-05-12T11:46:20.553Z,21888
2016-05-12T11:47:20.383Z,22528
2016-05-12T11:48:19.964Z,26624
2016-05-12T11:49:19.779Z,23200
2016-05-12T11:50:19.939Z,43520
2016-05-12T11:51:20.504Z,21792
2016-05-12T11:52:20.068Z,134688
2016-05-12T11:53:20.509Z,129888
2016-05-12T11:54:21.371Z,79232
2016-05-12T11:55:20.905Z,32320
2016-05-12T11:56:20.501Z,113632
2016-05-12T11:57:20.567Z,24224
2016-05-12T11:58:20.429Z,24480
2016-05-12T11:59:20.478Z,29184
2016-05-12T12:00:20.715Z,131712
2016-05-12T12:01:20.984Z,51744
2016-05-12T12:02:20.612Z,113056
2016-05-12T12:03:22.927Z,95840
2016-05-12T12:04:20.992Z,26432
2016-05-12T12:05:21.338Z,31104
2016-05-12T12:06:21.075Z,19840
2016-05-12T12:07:21.140Z,19200
2016-05-12T12:08:21.221Z,82880
2016-05-12T12:09:21.209Z,110880
2016-05-12T12:10:21.164Z,17728
2016-05-12T12:11:23.197Z,15568
2016-05-12T12:12:21.341Z,16480
2016-05-12T12:13:21.438Z,19936
2016-05-12T12:14:21.362Z,20672
2016-05-12T12:15:22.130Z,18528
2016-05-12T12:16:21.727Z,15820
2016-05-12T12:17:21.839Z,14696
2016-05-12T12:18:21.624Z,15312
2016-05-12T12:19:21.657Z,12336
2016-05-12T12:20:21.754Z,11480
2016-05-12T12:21:24.052Z,11588
2016-05-12T12:22:22.103Z,11924
2016-05-12T12:23:22.043Z,13352
2016-05-12T12:24:22.093Z,27008
2016-05-12T12:25:22.110Z,17728
2016-05-12T12:26:22.160Z,17088
2016-05-12T12:27:23.116Z,73504
2016-05-12T12:28:22.415Z,60480
2016-05-12T12:29:22.168Z,84832
2016-05-12T12:30:22.186Z,89184
2016-05-12T12:31:22.454Z,18048
2016-05-12T12:32:22.568Z,16224
2016-05-12T12:33:22.554Z,17376
2016-05-12T12:34:22.541Z,33760
2016-05-12T12:35:22.481Z,21152
2016-05-12T12:36:22.812Z,15088
2016-05-12T12:37:22.784Z,14560
2016-05-12T12:38:22.787Z,16000
2016-05-12T12:39:23.476Z,62816
2016-05-12T12:40:23.526Z,95296
2016-05-12T12:41:23.842Z,91008
2016-05-12T12:42:23.328Z,96288
2016-05-12T12:43:23.737Z,97632
2016-05-12T12:44:22.911Z,96640
2016-05-12T12:45:22.992Z,31200
2016-05-12T12:46:23.652Z,20480
2016-05-12T12:47:23.951Z,19584
2016-05-12T12:48:23.969Z,19936
2016-05-12T12:49:23.252Z,18720
2016-05-12T12:50:23.288Z,19584
2016-05-12T12:51:24.087Z,25408
2016-05-12T12:52:23.543Z,78528
2016-05-12T12:53:23.577Z,100704
2016-05-12T12:54:23.407Z,104928
2016-05-12T12:55:24.660Z,112160
2016-05-12T12:56:23.804Z,121632
2016-05-12T12:57:23.791Z,119648
2016-05-12T12:58:23.840Z,101248
2016-05-12T12:59:23.780Z,24992
2016-05-12T13:00:23.971Z,21248
2016-05-12T13:01:24.239Z,19840
2016-05-12T13:02:23.992Z,19360
2016-05-12T13:03:24.259Z,21568
2016-05-12T13:04:23.887Z,39904
2016-05-12T13:05:24.546Z,36480
2016-05-12T13:06:24.330Z,21792
2016-05-12T13:07:24.380Z,21632
2016-05-12T13:08:24.429Z,24224
2016-05-12T13:09:24.338Z,29504
2016-05-12T13:10:26.138Z,38848
2016-05-12T13:11:24.687Z,52352
2016-05-12T13:12:24.644Z,56992
2016-05-12T13:13:24.537Z,25632
2016-05-12T13:14:24.712Z,14716
2016-05-12T13:15:24.776Z,11880
2016-05-12T13:16:25.061Z,10356
2016-05-12T13:17:24.953Z,9208
2016-05-12T13:18:24.628Z,8360
2016-05-12T13:19:25.022Z,7788
2016-05-12T13:20:25.290Z,8440
2016-05-12T13:21:25.027Z,9804
2016-05-12T13:22:24.998Z,10116
2016-05-12T13:23:25.219Z,9492
2016-05-12T13:24:25.160Z,10236
2016-05-12T13:25:25.178Z,12320
2016-05-12T13:26:25.352Z,13852
2016-05-12T13:27:25.418Z,14412
2016-05-12T13:28:25.468Z,15428
2016-05-12T13:29:25.517Z,16260